createdAt,value
2023-03-26T00:00:28.723Z,7.50
2023-03-26T00:02:31.397Z,7.50
2023-03-26T00:04:34.009Z,7.50
2023-03-26T00:06:38.542Z,7.50
2023-03-26T00:08:41.867Z,7.50
2023-03-26T00:10:44.641Z,7.50
2023-03-26T00:12:47.399Z,7.60
2023-03-26T00:14:51.240Z,7.60
2023-03-26T00:16:53.966Z,7.60
2023-03-26T00:18:57.089Z,7.60
2023-03-26T00:21:00.738Z,7.60
2023-03-26T00:23:03.299Z,7.60
2023-03-26T00:25:06.758Z,7.60
2023-03-26T00:27:09.270Z,7.60
2023-03-26T00:29:13.134Z,7.60
2023-03-26T00:31:15.855Z,7.70
2023-03-26T00:33:18.504Z,7.70
2023-03-26T00:35:21.793Z,7.60
2023-03-26T00:37:26.184Z,7.70
2023-03-26T00:39:29.057Z,7.70
2023-03-26T00:41:31.770Z,7.70
2023-03-26T00:43:35.279Z,7.70
2023-03-26T00:45:37.824Z,7.70
2023-03-26T00:47:40.577Z,7.80
2023-03-26T00:49:45.010Z,7.70
2023-03-26T00:51:47.648Z,7.70
2023-03-26T00:53:50.819Z,7.70
2023-03-26T00:55:53.623Z,7.70
2023-03-26T00:57:56.743Z,7.70
2023-03-26T00:59:59.378Z,7.70
2023-03-26T01:02:02.016Z,7.70
2023-03-26T01:04:25.800Z,7.60
2023-03-26T01:06:51.574Z,7.60
2023-03-26T01:08:59.615Z,7.70
2023-03-26T01:11:04.713Z,7.70
2023-03-26T01:13:07.453Z,7.70
2023-03-26T01:15:13.266Z,7.70
2023-03-26T01:17:16.096Z,7.70
2023-03-26T01:19:22.184Z,7.70
2023-03-26T01:21:27.683Z,7.80
2023-03-26T01:23:32.285Z,7.70
2023-03-26T01:25:36.727Z,7.70
2023-03-26T01:27:40.773Z,7.70
2023-03-26T01:29:46.446Z,7.70
2023-03-26T01:31:52.027Z,7.70
2023-03-26T01:33:56.439Z,7.70
2023-03-26T01:36:01.052Z,7.70
2023-03-26T01:38:10.415Z,7.70
2023-03-26T01:40:15.367Z,7.80
2023-03-26T01:42:20.433Z,7.70
2023-03-26T01:44:25.525Z,7.80
2023-03-26T01:46:28.758Z,7.80
2023-03-26T01:48:33.824Z,7.80
2023-03-26T01:50:36.429Z,7.80
2023-03-26T01:52:39.000Z,7.90
2023-03-26T01:54:42.507Z,7.90
2023-03-26T01:56:48.692Z,7.90
2023-03-26T01:58:54.867Z,8.00
2023-03-26T02:01:01.559Z,7.90
2023-03-26T02:03:16.745Z,8.00
2023-03-26T02:05:21.770Z,8.00
2023-03-26T02:07:28.119Z,7.90
2023-03-26T02:09:32.332Z,7.90
2023-03-26T02:11:36.155Z,8.00
2023-03-26T02:13:39.118Z,8.00
2023-03-26T02:15:43.494Z,7.90
2023-03-26T02:17:46.431Z,8.00
2023-03-26T02:19:49.151Z,8.00
2023-03-26T02:21:51.721Z,8.00
2023-03-26T02:23:59.255Z,8.00
2023-03-26T02:26:03.227Z,8.00
2023-03-26T02:28:05.891Z,8.00
2023-03-26T02:30:10.798Z,8.10
2023-03-26T02:32:13.466Z,8.10
2023-03-26T02:34:16.342Z,8.00
2023-03-26T02:36:22.631Z,8.00
2023-03-26T02:38:26.542Z,8.00
2023-03-26T02:40:29.220Z,8.00
2023-03-26T02:42:32.184Z,8.10
2023-03-26T02:44:34.941Z,8.00
2023-03-26T02:46:37.539Z,8.00
2023-03-26T02:48:42.039Z,8.00
2023-03-26T02:50:48.728Z,8.10
2023-03-26T02:52:53.424Z,8.10
2023-03-26T02:54:56.044Z,8.10
2023-03-26T02:57:00.702Z,8.10
2023-03-26T02:59:05.189Z,8.10
2023-03-26T03:01:07.904Z,8.10
2023-03-26T03:03:12.457Z,8.10
2023-03-26T03:05:17.833Z,8.00
2023-03-26T03:07:22.099Z,8.00
2023-03-26T03:09:24.801Z,8.00
2023-03-26T03:11:29.168Z,8.10
2023-03-26T03:13:31.759Z,8.00
2023-03-26T03:15:34.829Z,8.00
2023-03-26T03:17:37.540Z,8.00
2023-03-26T03:19:40.215Z,8.00
2023-03-26T03:21:42.951Z,8.10
2023-03-26T03:23:45.553Z,8.00
2023-03-26T03:25:50.935Z,8.00
2023-03-26T03:27:53.785Z,8.10
2023-03-26T03:29:58.232Z,8.10
2023-03-26T03:32:02.704Z,8.00
2023-03-26T03:34:07.063Z,8.00
2023-03-26T03:36:19.726Z,8.10
2023-03-26T03:38:17.678Z,8.00
2023-03-26T03:40:22.077Z,8.00
2023-03-26T03:42:24.794Z,8.00
2023-03-26T03:44:28.775Z,8.00
2023-03-26T03:46:31.650Z,8.00
2023-03-26T03:48:36.087Z,8.00
2023-03-26T03:50:38.820Z,8.00
2023-03-26T03:52:43.210Z,8.00
2023-03-26T03:54:46.871Z,8.10
2023-03-26T03:56:51.310Z,8.00
2023-03-26T03:58:57.568Z,7.90
2023-03-26T04:01:02.437Z,8.00
2023-03-26T04:05:24.166Z,7.90
2023-03-26T04:07:27.711Z,7.90
2023-03-26T04:09:32.112Z,7.90
2023-03-26T04:11:36.563Z,7.80
2023-03-26T04:13:40.953Z,7.90
2023-03-26T04:15:45.402Z,7.80
2023-03-26T04:17:48.111Z,7.80
2023-03-26T04:19:52.560Z,7.70
2023-03-26T04:21:55.115Z,7.70
2023-03-26T04:23:57.688Z,7.70
2023-03-26T04:26:03.983Z,7.50
2023-03-26T04:28:08.600Z,7.40
2023-03-26T04:30:14.998Z,7.40
2023-03-26T04:32:19.542Z,7.30
2023-03-26T04:34:24.626Z,7.30
2023-03-26T04:36:31.567Z,7.30
2023-03-26T04:38:36.503Z,7.30
2023-03-26T04:40:39.164Z,7.30
2023-03-26T04:42:45.359Z,7.20
2023-03-26T04:44:50.385Z,7.20
2023-03-26T04:46:54.583Z,7.20
2023-03-26T04:48:59.391Z,7.20
2023-03-26T04:51:01.963Z,7.20
2023-03-26T04:53:04.773Z,7.20
2023-03-26T04:55:13.170Z,7.20
2023-03-26T04:57:18.143Z,7.20
2023-03-26T04:59:25.715Z,7.20
2023-03-26T05:01:30.134Z,7.20
2023-03-26T05:03:33.347Z,7.20
2023-03-26T05:05:38.146Z,7.30
2023-03-26T05:07:41.572Z,7.20
2023-03-26T05:09:44.811Z,7.30
2023-03-26T05:11:50.091Z,7.30
2023-03-26T05:13:52.776Z,7.30
2023-03-26T05:15:55.786Z,7.30
2023-03-26T05:18:00.257Z,7.30
2023-03-26T05:20:05.369Z,7.50
2023-03-26T05:22:08.382Z,7.40
2023-03-26T05:24:12.690Z,7.30
2023-03-26T05:26:17.215Z,7.30
2023-03-26T05:28:22.022Z,7.20
2023-03-26T05:30:26.422Z,7.30
2023-03-26T05:32:31.220Z,7.30
2023-03-26T05:34:34.099Z,7.30
2023-03-26T05:36:37.475Z,7.40
2023-03-26T05:38:42.804Z,7.40
2023-03-26T05:40:45.952Z,7.30
2023-03-26T05:42:50.759Z,7.40
2023-03-26T05:47:11.654Z,7.40
2023-03-26T05:49:14.246Z,7.30
2023-03-26T05:51:16.842Z,7.30
2023-03-26T05:53:21.815Z,7.20
2023-03-26T05:55:27.189Z,7.20
2023-03-26T05:57:31.928Z,7.10
2023-03-26T05:59:36.493Z,7.20
2023-03-26T06:01:43.675Z,7.20
2023-03-26T06:03:48.364Z,7.20
2023-03-26T06:05:52.871Z,7.20
2023-03-26T06:07:57.250Z,7.30
2023-03-26T06:10:02.286Z,7.30
2023-03-26T06:12:05.529Z,7.40
2023-03-26T06:14:08.144Z,7.40
2023-03-26T06:16:26.207Z,7.40
2023-03-26T06:18:20.039Z,7.40
2023-03-26T06:20:24.714Z,7.50
2023-03-26T06:22:28.096Z,7.50
2023-03-26T06:24:32.845Z,7.50
2023-03-26T06:26:38.282Z,7.50
2023-03-26T06:28:44.915Z,7.50
2023-03-26T06:30:50.114Z,7.60
2023-03-26T06:32:55.533Z,7.60
2023-03-26T06:35:01.108Z,7.60
2023-03-26T06:37:04.529Z,7.70
2023-03-26T06:39:08.215Z,7.70
2023-03-26T06:41:14.016Z,7.70
2023-03-26T06:43:19.550Z,7.70
2023-03-26T06:45:24.011Z,7.80
2023-03-26T06:47:28.406Z,7.80
2023-03-26T06:49:34.069Z,7.80
2023-03-26T06:51:41.002Z,7.80
2023-03-26T06:53:46.839Z,7.80
2023-03-26T06:55:53.462Z,7.80
2023-03-26T06:58:11.078Z,7.90
2023-03-26T07:00:16.293Z,7.90
2023-03-26T07:02:22.817Z,7.80
2023-03-26T07:04:28.894Z,7.90
2023-03-26T07:06:44.535Z,7.90
2023-03-26T07:08:50.732Z,7.90
2023-03-26T07:10:55.718Z,7.90
2023-03-26T07:13:02.256Z,7.90
2023-03-26T07:15:09.093Z,7.90
2023-03-26T07:17:15.184Z,7.90
2023-03-26T07:19:21.079Z,7.90
2023-03-26T07:21:26.287Z,8.00
2023-03-26T07:23:31.352Z,7.90
2023-03-26T07:25:37.672Z,8.00
2023-03-26T07:27:48.135Z,8.00
2023-03-26T07:29:56.894Z,8.00
2023-03-26T07:32:03.351Z,8.00
2023-03-26T07:34:10.174Z,8.00
2023-03-26T07:36:19.232Z,8.10
2023-03-26T07:38:26.714Z,8.10
2023-03-26T07:40:39.089Z,8.10
2023-03-26T07:42:47.802Z,8.10
2023-03-26T07:44:53.993Z,8.10
2023-03-26T07:46:59.805Z,8.20
2023-03-26T07:49:05.659Z,8.20
2023-03-26T07:51:11.572Z,8.20
2023-03-26T07:53:16.417Z,8.20
2023-03-26T07:55:21.790Z,8.20
2023-03-26T07:57:30.806Z,8.30
2023-03-26T07:59:36.778Z,8.30
2023-03-26T08:01:48.621Z,8.30
2023-03-26T08:04:00.316Z,8.30
2023-03-26T08:06:09.999Z,8.30
2023-03-26T08:08:16.807Z,8.30
2023-03-26T08:10:22.887Z,8.40
2023-03-26T08:12:29.452Z,8.40
2023-03-26T08:14:35.827Z,8.50
2023-03-26T08:16:40.207Z,8.50
2023-03-26T08:18:46.471Z,8.50
2023-03-26T08:20:50.038Z,8.50
2023-03-26T08:22:54.608Z,8.50
2023-03-26T08:25:13.256Z,8.40
2023-03-26T08:27:18.225Z,8.40
2023-03-26T08:29:22.715Z,8.40
2023-03-26T08:31:29.165Z,8.50
2023-03-26T08:33:34.613Z,8.50
2023-03-26T08:35:40.261Z,8.50
2023-03-26T08:37:44.821Z,8.50
2023-03-26T08:39:47.669Z,8.50
2023-03-26T08:42:00.483Z,8.50
2023-03-26T08:44:31.238Z,8.50
2023-03-26T08:46:52.032Z,8.50
2023-03-26T08:49:03.628Z,8.50
2023-03-26T08:51:12.960Z,8.60
2023-03-26T08:53:37.688Z,8.60
2023-03-26T09:10:00.548Z,8.60
2023-03-26T09:12:28.788Z,8.90
2023-03-26T09:14:56.772Z,7.50
2023-03-26T09:17:13.745Z,9.50
2023-03-26T09:20:10.292Z,7.00
2023-03-26T09:23:03.670Z,8.90
2023-03-26T09:25:31.204Z,8.80
2023-03-26T09:27:46.850Z,9.40
2023-03-26T09:30:14.420Z,8.70
2023-03-26T09:33:08.927Z,9.10
2023-03-26T10:38:30.528Z,9.70
2023-03-26T11:33:37.797Z,8.20
2023-03-26T11:35:41.995Z,10.50
2023-03-26T11:40:42.883Z,7.20
2023-03-26T11:42:53.461Z,8.70
2023-03-26T11:44:56.103Z,8.20
2023-03-26T11:47:15.395Z,8.70
2023-03-26T11:49:35.777Z,8.30
2023-03-26T11:55:06.182Z,6.80
2023-03-26T11:57:32.606Z,7.10
2023-03-26T11:59:48.970Z,8.00
2023-03-26T12:01:44.022Z,6.80
2023-03-26T12:04:05.282Z,8.00
2023-03-26T12:08:45.040Z,6.30
2023-03-26T12:10:54.891Z,6.70
2023-03-26T12:16:17.110Z,8.30
2023-03-26T12:25:28.853Z,7.50
2023-03-26T12:33:00.441Z,9.50
2023-03-26T12:35:08.172Z,9.70
2023-03-26T12:51:05.614Z,6.70
2023-03-26T12:53:14.371Z,8.30
2023-03-26T12:55:21.740Z,6.40
2023-03-26T12:57:25.984Z,5.70
2023-03-26T12:59:52.880Z,7.70
2023-03-26T13:02:05.679Z,8.50
2023-03-26T13:04:15.759Z,8.60
2023-03-26T13:06:28.722Z,5.50
2023-03-26T13:08:52.230Z,9.30
2023-03-26T13:11:00.777Z,8.60
2023-03-26T13:13:09.386Z,8.40
2023-03-26T13:15:19.734Z,9.20
2023-03-26T13:17:24.998Z,8.10
2023-03-26T13:19:29.942Z,7.60
2023-03-26T13:21:39.333Z,8.90
2023-03-26T13:23:53.309Z,8.90
2023-03-26T13:26:03.876Z,7.30
2023-03-26T13:28:14.292Z,8.70
2023-03-26T13:30:22.022Z,7.20
2023-03-26T13:32:29.245Z,8.50
2023-03-26T13:34:35.692Z,6.90
2023-03-26T13:36:42.729Z,8.70
2023-03-26T13:38:59.213Z,10.00
2023-03-26T13:40:55.704Z,8.20
2023-03-26T13:43:03.622Z,8.30
2023-03-26T13:45:09.272Z,9.10
2023-03-26T13:47:15.150Z,8.70
2023-03-26T13:49:19.887Z,9.20
2023-03-26T13:51:24.473Z,8.90
2023-03-26T13:53:30.559Z,8.70
2023-03-26T13:58:34.833Z,9.70
2023-03-26T14:00:43.435Z,9.10
2023-03-26T14:02:48.037Z,7.10
2023-03-26T14:04:52.731Z,9.10
2023-03-26T14:06:57.757Z,9.00
2023-03-26T14:09:04.252Z,9.00
2023-03-26T14:11:10.353Z,9.00
2023-03-26T14:13:16.372Z,9.00
2023-03-26T14:15:20.861Z,9.00
2023-03-26T14:17:25.151Z,8.90
2023-03-26T14:19:44.779Z,8.90
2023-03-26T14:21:55.517Z,8.60
2023-03-26T14:24:23.229Z,9.60
2023-03-26T14:26:35.097Z,9.30
2023-03-26T14:28:50.871Z,8.20
2023-03-26T14:31:04.190Z,9.10
2023-03-26T14:33:13.553Z,9.20
2023-03-26T14:35:29.228Z,9.00
2023-03-26T14:37:40.438Z,9.20
2023-03-26T14:39:51.887Z,8.80
2023-03-26T14:41:56.979Z,8.30
2023-03-26T14:44:18.748Z,9.10
2023-03-26T14:46:34.173Z,9.10
2023-03-26T14:48:47.626Z,9.20
2023-03-26T14:50:54.832Z,9.20
2023-03-26T14:53:01.349Z,9.00
2023-03-26T14:55:06.986Z,8.90
2023-03-26T14:57:21.000Z,8.80
2023-03-26T14:59:58.687Z,8.90
2023-03-26T15:02:19.259Z,8.90
2023-03-26T15:04:41.041Z,8.90
2023-03-26T15:07:01.372Z,9.00
2023-03-26T15:09:19.845Z,8.90
2023-03-26T15:11:27.752Z,8.80
2023-03-26T15:14:00.201Z,8.80
2023-03-26T15:16:35.093Z,8.60
2023-03-26T15:37:04.812Z,8.90
2023-03-26T15:39:43.539Z,7.80
2023-03-26T15:41:55.637Z,7.00
2023-03-26T15:44:53.040Z,9.50
2023-03-26T15:49:21.916Z,9.10
2023-03-26T15:51:47.532Z,8.20
2023-03-26T15:53:44.743Z,9.00
2023-03-26T15:55:55.331Z,8.20
2023-03-26T15:58:05.376Z,8.20
2023-03-26T16:00:21.909Z,8.20
2023-03-26T16:02:27.180Z,8.20
2023-03-26T16:16:45.301Z,8.00
2023-03-26T16:18:55.879Z,7.90
2023-03-26T16:21:08.481Z,7.70
2023-03-26T16:23:22.166Z,7.80
2023-03-26T16:25:29.044Z,7.70
2023-03-26T16:27:33.828Z,7.70
2023-03-26T16:29:52.912Z,7.70
2023-03-26T16:32:00.970Z,7.60
2023-03-26T16:34:21.828Z,7.60
2023-03-26T16:38:49.788Z,7.50
2023-03-26T16:40:59.967Z,7.40
2023-03-26T16:43:05.504Z,7.40
2023-03-26T16:45:17.096Z,7.40
2023-03-26T16:47:22.281Z,7.40
2023-03-26T16:49:32.147Z,7.30
2023-03-26T16:51:39.153Z,7.30
2023-03-26T16:53:43.965Z,7.30
2023-03-26T16:55:52.576Z,7.30
2023-03-26T16:58:07.750Z,7.30
2023-03-26T17:00:25.663Z,6.90
2023-03-26T17:02:31.403Z,9.50
2023-03-26T17:04:46.854Z,7.80
2023-03-26T17:07:01.208Z,8.90
2023-03-26T17:28:59.925Z,7.20
2023-03-26T17:33:39.576Z,5.90
2023-03-26T17:35:44.567Z,7.60
2023-03-26T17:37:49.262Z,7.20
2023-03-26T17:40:11.916Z,7.20
2023-03-26T17:42:18.572Z,7.10
2023-03-26T17:44:29.103Z,7.10
2023-03-26T17:46:34.148Z,7.00
2023-03-26T17:48:38.074Z,6.90
2023-03-26T17:50:43.644Z,6.80
2023-03-26T17:52:48.501Z,6.80
2023-03-26T17:54:52.324Z,6.80
2023-03-26T17:56:56.202Z,6.70
2023-03-26T17:59:11.722Z,6.60
2023-03-26T18:01:09.956Z,6.70
2023-03-26T18:03:14.577Z,6.60
2023-03-26T18:05:17.314Z,6.60
2023-03-26T18:07:46.832Z,6.60
2023-03-26T18:09:54.860Z,6.60
2023-03-26T18:12:04.897Z,6.60
2023-03-26T18:14:35.869Z,6.50
2023-03-26T18:16:39.966Z,6.50
2023-03-26T18:18:45.925Z,6.50
2023-03-26T18:20:50.208Z,6.40
2023-03-26T18:22:52.782Z,6.40
2023-03-26T18:24:58.348Z,6.30
2023-03-26T18:27:02.893Z,6.30
2023-03-26T18:29:14.279Z,6.30
2023-03-26T18:31:19.019Z,6.20
2023-03-26T18:33:21.682Z,6.20
2023-03-26T18:35:24.845Z,6.20
2023-03-26T18:37:28.558Z,6.20
2023-03-26T18:39:31.071Z,6.10
2023-03-26T18:41:36.653Z,6.10
2023-03-26T18:43:43.969Z,6.10
2023-03-26T18:45:44.559Z,6.10
2023-03-26T18:47:49.056Z,6.10
2023-03-26T18:49:53.558Z,6.10
2023-03-26T18:51:57.562Z,6.10
2023-03-26T18:54:02.234Z,6.00
2023-03-26T18:56:07.743Z,6.00
2023-03-26T18:58:21.851Z,6.00
2023-03-26T19:00:25.764Z,5.90
2023-03-26T19:02:28.495Z,5.80
2023-03-26T19:04:32.835Z,5.70
2023-03-26T19:06:37.645Z,5.70
2023-03-26T19:08:41.973Z,5.70
2023-03-26T19:10:46.872Z,5.60
2023-03-26T19:12:55.368Z,5.60
2023-03-26T19:14:59.772Z,5.60
2023-03-26T19:17:03.428Z,5.60
2023-03-26T19:19:07.915Z,5.50
2023-03-26T19:21:10.453Z,5.50
2023-03-26T19:23:14.676Z,5.50
2023-03-26T19:25:20.399Z,5.50
2023-03-26T19:27:22.862Z,5.50
2023-03-26T19:29:27.188Z,5.40
2023-03-26T19:31:33.354Z,5.40
2023-03-26T19:33:36.449Z,5.30
2023-03-26T19:35:39.832Z,5.30
2023-03-26T19:37:49.782Z,5.20
2023-03-26T19:39:53.016Z,5.10
2023-03-26T19:41:55.764Z,5.10
2023-03-26T19:44:00.157Z,5.10
2023-03-26T19:46:02.638Z,5.00
2023-03-26T19:48:14.321Z,5.00
2023-03-26T19:50:16.468Z,4.90
2023-03-26T19:52:26.529Z,4.90
2023-03-26T19:54:31.244Z,4.80
2023-03-26T19:56:34.006Z,4.80
2023-03-26T19:58:40.045Z,4.80
2023-03-26T20:00:46.488Z,4.70
2023-03-26T20:02:49.663Z,4.70
2023-03-26T20:04:52.342Z,4.60
2023-03-26T20:06:55.570Z,4.60
2023-03-26T20:08:58.810Z,4.50
2023-03-26T20:11:01.326Z,4.50
2023-03-26T20:13:04.142Z,4.40
2023-03-26T20:15:22.527Z,4.40
2023-03-26T20:17:18.762Z,4.40
2023-03-26T20:19:22.842Z,4.30
2023-03-26T20:21:25.497Z,4.20
2023-03-26T20:23:28.234Z,4.20
2023-03-26T20:25:32.953Z,4.10
2023-03-26T20:27:36.358Z,4.20
2023-03-26T20:29:39.525Z,4.10
2023-03-26T20:31:42.527Z,4.10
2023-03-26T20:33:47.750Z,4.00
2023-03-26T20:35:50.438Z,4.00
2023-03-26T20:37:53.303Z,4.00
2023-03-26T20:39:55.825Z,4.10
2023-03-26T20:41:58.334Z,4.00
2023-03-26T20:44:02.654Z,4.00
2023-03-26T20:46:06.079Z,4.00
2023-03-26T20:48:09.743Z,3.90
2023-03-26T20:50:13.441Z,3.90
2023-03-26T20:52:17.865Z,3.80
2023-03-26T20:54:21.701Z,3.80
2023-03-26T20:56:24.353Z,3.70
2023-03-26T20:58:31.928Z,3.80
2023-03-26T21:00:32.325Z,3.70
2023-03-26T21:02:34.965Z,3.60
2023-03-26T21:04:37.706Z,3.60
2023-03-26T21:06:40.385Z,3.50
2023-03-26T21:08:44.215Z,3.40
2023-03-26T21:10:47.308Z,3.40
2023-03-26T21:12:51.660Z,3.40
2023-03-26T21:14:55.944Z,3.40
2023-03-26T21:16:59.651Z,3.20
2023-03-26T21:19:03.879Z,3.20
2023-03-26T21:21:20.271Z,3.20
2023-03-26T21:23:15.574Z,3.10
2023-03-26T21:25:22.300Z,3.10
2023-03-26T21:27:26.947Z,3.10
2023-03-26T21:29:29.932Z,3.10
2023-03-26T21:31:34.904Z,3.10
2023-03-26T21:33:38.097Z,3.20
2023-03-26T21:35:41.477Z,3.20
2023-03-26T21:37:47.184Z,3.10
2023-03-26T21:39:50.171Z,3.10
2023-03-26T21:42:04.854Z,3.10
2023-03-26T21:43:59.957Z,3.00
2023-03-26T21:46:02.892Z,3.00
2023-03-26T21:48:06.503Z,3.10
2023-03-26T21:50:11.507Z,3.10
2023-03-26T21:52:15.557Z,3.00
2023-03-26T21:54:23.062Z,3.00
2023-03-26T21:56:30.545Z,3.00
2023-03-26T21:58:40.072Z,2.90
2023-03-26T22:00:45.230Z,2.90
2023-03-26T22:02:52.184Z,2.90
2023-03-26T22:04:56.980Z,2.90
2023-03-26T22:07:02.173Z,2.90
2023-03-26T22:09:05.163Z,2.80
2023-03-26T22:11:08.302Z,2.80
2023-03-26T22:13:10.795Z,2.80
2023-03-26T22:15:13.548Z,2.80
2023-03-26T22:17:16.123Z,2.70
2023-03-26T22:19:18.750Z,2.70
2023-03-26T22:21:22.808Z,2.60
2023-03-26T22:23:25.523Z,2.60
2023-03-26T22:25:28.089Z,2.50
2023-03-26T22:27:30.801Z,2.50
2023-03-26T22:29:33.391Z,2.50
2023-03-26T22:31:38.547Z,2.40
2023-03-26T22:33:41.297Z,2.40
2023-03-26T22:35:44.500Z,2.40
2023-03-26T22:37:47.214Z,2.40
2023-03-26T22:39:49.699Z,2.40
2023-03-26T22:41:52.257Z,2.30
2023-03-26T22:43:55.948Z,2.30
2023-03-26T22:45:59.253Z,2.30
2023-03-26T22:48:04.165Z,2.30
2023-03-26T22:50:08.046Z,2.40
2023-03-26T22:52:10.553Z,2.30
2023-03-26T22:54:13.136Z,2.30
2023-03-26T22:56:16.492Z,2.40
2023-03-26T22:58:18.964Z,2.40
2023-03-26T23:00:21.994Z,2.40
2023-03-26T23:02:24.526Z,2.30
2023-03-26T23:06:42.726Z,2.30
2023-03-26T23:08:45.805Z,2.30
2023-03-26T23:10:48.384Z,2.30
2023-03-26T23:12:52.214Z,2.30
2023-03-26T23:14:55.532Z,2.30
2023-03-26T23:16:58.904Z,2.20
2023-03-26T23:19:02.502Z,2.30
2023-03-26T23:21:06.407Z,2.30
2023-03-26T23:23:10.800Z,2.30
2023-03-26T23:25:13.565Z,2.20
2023-03-26T23:27:16.067Z,2.20
2023-03-26T23:29:20.646Z,2.20
2023-03-26T23:31:24.766Z,2.20
2023-03-26T23:33:29.560Z,2.20
2023-03-26T23:35:32.059Z,2.20
2023-03-26T23:37:35.515Z,2.10
2023-03-26T23:39:38.231Z,2.20
2023-03-26T23:41:40.758Z,2.20
2023-03-26T23:43:53.400Z,2.20
2023-03-26T23:45:48.378Z,2.30
2023-03-26T23:47:50.940Z,2.20
2023-03-26T23:49:53.376Z,2.30
2023-03-26T23:51:55.855Z,2.20
2023-03-26T23:53:59.199Z,2.20
2023-03-26T23:56:02.877Z,2.20
2023-03-26T23:58:06.203Z,2.20
